Time;durP1;ratioP1;P1;durP2;ratioP2;P2;SDS_P1;SDS_P2;PMS_P1;PMS_P2;Temp;Humidity;BMP_temperature;BMP_pressure;BME280_temperature;BME280_humidity;BME280_pressure;Samples;Min_cycle;Max_cycle;Signal;HPM_P1;HPM_P2
2022/03/04 15:25:38;;;;;;;1.02;0.40;;;18.70;41.50;;;;;;20763831;27;20458;-65
2022/03/04 15:35:39;;;;;;;2.45;0.80;;;18.20;39.10;;;;;;20739542;28;20074;-65
2022/03/04 15:45:40;;;;;;;2.72;0.82;;;16.00;42.90;;;;;;20735920;28;20046;-64
2022/03/04 15:55:42;;;;;;;1.05;0.50;;;14.90;44.70;;;;;;20735160;28;20143;-59
2022/03/04 16:05:44;;;;;;;3.25;0.95;;;14.50;45.20;;;;;;20734128;28;20050;-61
2022/03/04 16:15:46;;;;;;;3.47;1.27;;;14.30;45.30;;;;;;20735874;28;20054;-64
2022/03/04 16:25:48;;;;;;;2.10;0.60;;;14.10;45.50;;;;;;20733959;28;20458;-65
2022/03/04 16:35:50;;;;;;;3.38;0.40;;;13.70;45.60;;;;;;20685394;28;20057;-69
2022/03/04 16:45:51;;;;;;;0.93;0.30;;;13.90;44.90;;;;;;20676548;28;20078;-63
2022/03/04 16:55:52;;;;;;;3.33;1.58;;;13.30;45.70;;;;;;20690709;28;20051;-64
2022/03/04 17:05:54;;;;;;;0.50;0.20;;;13.20;46.40;;;;;;20690823;28;20054;-65
2022/03/04 17:15:55;;;;;;;1.05;0.35;;;13.30;46.10;;;;;;20674630;28;20051;-63
2022/03/04 17:25:57;;;;;;;3.03;1.13;;;13.40;46.60;;;;;;20673896;28;20046;-67
2022/03/04 17:35:58;;;;;;;1.52;0.40;;;13.70;46.30;;;;;;20673299;28;20058;-60
2022/03/04 17:45:59;;;;;;;1.23;0.28;;;13.60;47.20;;;;;;20686090;28;20162;-61
2022/03/04 17:56:02;;;;;;;2.45;0.50;;;13.40;45.60;;;;;;20672155;28;20141;-69
2022/03/04 18:06:03;;;;;;;1.27;0.28;;;12.90;44.40;;;;;;20671074;28;20078;-61
2022/03/04 18:16:05;;;;;;;0.63;0.10;;;12.90;43.90;;;;;;20684466;28;20105;-61
2022/03/04 18:26:07;;;;;;;2.33;0.40;;;12.50;44.10;;;;;;20669413;28;20076;-66
2022/03/04 18:36:09;;;;;;;1.02;0.30;;;12.40;44.20;;;;;;20668005;28;20054;-61
2022/03/04 18:46:10;;;;;;;0.90;0.40;;;12.60;45.50;;;;;;20669829;28;20553;-61
2022/03/04 18:56:12;;;;;;;1.88;0.52;;;12.30;44.50;;;;;;20668883;28;20060;-60
2022/03/04 19:06:13;;;;;;;0.57;0.40;;;12.20;45.20;;;;;;20668970;28;20053;-60
2022/03/04 19:16:15;;;;;;;2.05;0.38;;;12.40;44.50;;;;;;20666426;28;20502;-61
2022/03/04 19:26:17;;;;;;;1.20;0.50;;;12.00;44.90;;;;;;20665998;28;20055;-60
2022/03/04 19:36:19;;;;;;;1.58;0.45;;;11.70;45.40;;;;;;20666559;28;20055;-58
2022/03/04 19:46:20;;;;;;;1.60;0.80;;;11.70;45.60;;;;;;20665605;28;20065;-62
2022/03/04 19:56:25;;;;;;;1.85;0.82;;;11.70;45.90;;;;;;20663518;28;20062;-62
2022/03/04 20:06:28;;;;;;;1.23;0.43;;;11.90;45.70;;;;;;20671618;28;20051;-66
2022/03/04 20:16:30;;;;;;;0.90;0.38;;;11.90;46.00;;;;;;20680972;28;20054;-64
2022/03/04 20:26:31;;;;;;;1.58;0.82;;;11.60;46.80;;;;;;20679216;28;20050;-67
2022/03/04 20:36:33;;;;;;;2.13;0.82;;;11.40;47.80;;;;;;20678332;28;20526;-64
2022/03/04 20:46:34;;;;;;;1.88;0.40;;;11.30;48.20;;;;;;20676974;28;20050;-63
2022/03/04 20:56:37;;;;;;;2.10;0.60;;;11.10;48.70;;;;;;20677606;28;20057;-69
2022/03/04 21:06:39;;;;;;;1.17;0.50;;;10.90;48.90;;;;;;20676350;28;20490;-67
2022/03/04 21:16:42;;;;;;;1.20;0.52;;;10.80;49.10;;;;;;20674890;28;20058;-70
2022/03/04 21:26:43;;;;;;;1.83;0.70;;;10.90;49.20;;;;;;20674486;28;20410;-69
2022/03/04 21:36:44;;;;;;;1.23;0.50;;;10.60;49.60;;;;;;20675122;28;20402;-68
2022/03/04 21:46:46;;;;;;;0.57;0.25;;;10.50;49.60;;;;;;20672568;28;20111;-64
2022/03/04 21:56:47;;;;;;;1.52;0.60;;;10.40;49.70;;;;;;20669992;28;20133;-68
2022/03/04 22:06:49;;;;;;;1.42;0.60;;;10.30;49.60;;;;;;20671039;28;20073;-68
2022/03/04 22:16:51;;;;;;;0.13;0.13;;;10.10;49.90;;;;;;20671411;28;20112;-68
2022/03/04 22:26:54;;;;;;;1.20;0.38;;;10.00;50.20;;;;;;20670223;28;20490;-69
2022/03/04 22:36:56;;;;;;;1.58;0.77;;;9.90;50.70;;;;;;20668596;28;20046;-66
2022/03/04 22:46:57;;;;;;;0.28;0.17;;;9.80;51.50;;;;;;20669218;28;20459;-68
2022/03/04 22:56:59;;;;;;;1.05;0.30;;;9.80;51.80;;;;;;20682412;28;20395;-65
2022/03/04 23:17:21;;;;;;;1.50;0.40;;;9.80;52.50;;;;;;20666022;28;20050;-61
2022/03/04 23:27:23;;;;;;;0.50;0.20;;;9.80;52.90;;;;;;20666778;28;20093;-68
2022/03/04 23:37:24;;;;;;;0.68;0.30;;;9.80;53.10;;;;;;20665457;28;20082;-65
2022/03/04 23:47:26;;;;;;;0.80;0.40;;;9.70;53.70;;;;;;20681826;28;20074;-67
2022/03/04 23:57:28;;;;;;;0.90;0.40;;;9.70;53.80;;;;;;20681821;28;20128;-63
